AFR498 LFPG-TNCM
Flight info
| Callsign | AFR498 |
|---|---|
| Flight time | N/A |
| Altitude | 38000 |
| Route | LGL UN491 UPALO/N0485F370 UN585 FEJAC DCT REGHI/M085F380 UN480 ETIKI DCT 46N020W 42N030W/M085F400 35N040W 27N050W 23N055W 20N060W DCT OBIKE L335 TRNKY |
| Aircraft | A359/H-SDE2E3GHIJ3J4J5LM1ORWXY/LB1D1 |
Departure
| Time | 2026-05-06 12:33 |
|---|---|
| Airport | Charles de Gaulle International Airport (LFPG) |
Arrival
| Time | N/A |
|---|---|
| Airport | Princess Juliana International Airport (TNCM) |
| Time | Latitude | Longitude | Altitude | Speed | Heading |
|---|---|---|---|---|---|
| 2026-05-06 12:24 | 49.00093 | 2.56238 | 363 ft | 15 kts | 269° |
| 2026-05-06 12:24 | 49.00086 | 2.56077 | 366 ft | 16 kts | 265° |
| 2026-05-06 12:24 | 49.00078 | 2.55907 | 360 ft | 16 kts | 265° |
| 2026-05-06 12:25 | 49.00073 | 2.55732 | 362 ft | 17 kts | 268° |
| 2026-05-06 12:25 | 49.00140 | 2.55605 | 367 ft | 16 kts | 338° |
| 2026-05-06 12:25 | 49.00248 | 2.55561 | 362 ft | 17 kts | 346° |
| 2026-05-06 12:25 | 49.00347 | 2.55515 | 365 ft | 14 kts | 341° |
| 2026-05-06 12:26 | 49.00464 | 2.55463 | 362 ft | 20 kts | 344° |
| 2026-05-06 12:26 | 49.00602 | 2.55403 | 367 ft | 20 kts | 344° |
| 2026-05-06 12:26 | 49.00735 | 2.55345 | 368 ft | 20 kts | 344° |
| 2026-05-06 12:26 | 49.00870 | 2.55288 | 365 ft | 20 kts | 345° |
| 2026-05-06 12:27 | 49.01007 | 2.55231 | 366 ft | 20 kts | 345° |
| 2026-05-06 12:27 | 49.01143 | 2.55170 | 363 ft | 20 kts | 340° |
| 2026-05-06 12:27 | 49.01277 | 2.55110 | 367 ft | 20 kts | 345° |
| 2026-05-06 12:27 | 49.01410 | 2.55054 | 366 ft | 20 kts | 345° |
| 2026-05-06 12:28 | 49.01548 | 2.55025 | 363 ft | 20 kts | 354° |
| 2026-05-06 12:28 | 49.01686 | 2.55005 | 362 ft | 20 kts | 354° |
| 2026-05-06 12:28 | 49.01822 | 2.55006 | 368 ft | 16 kts | 29° |
| 2026-05-06 12:28 | 49.01867 | 2.55069 | 368 ft | 9 kts | 41° |
| 2026-05-06 12:29 | 49.01923 | 2.55089 | 366 ft | 9 kts | 358° |
| 2026-05-06 12:29 | 49.01986 | 2.55072 | 363 ft | 9 kts | 349° |
| 2026-05-06 12:29 | 49.02026 | 2.55100 | 370 ft | 6 kts | 43° |
| 2026-05-06 12:29 | 49.02043 | 2.55163 | 366 ft | 7 kts | 84° |
| 2026-05-06 12:30 | 49.02047 | 2.55249 | 364 ft | 9 kts | 83° |
| 2026-05-06 12:30 | 49.02055 | 2.55352 | 361 ft | 10 kts | 85° |
| 2026-05-06 12:30 | 49.02062 | 2.55469 | 367 ft | 12 kts | 85° |
| 2026-05-06 12:30 | 49.02070 | 2.55603 | 363 ft | 13 kts | 84° |
| 2026-05-06 12:31 | 49.02080 | 2.55751 | 366 ft | 14 kts | 87° |
| 2026-05-06 12:31 | 49.02087 | 2.55909 | 361 ft | 15 kts | 87° |
| 2026-05-06 12:31 | 49.02095 | 2.56077 | 361 ft | 16 kts | 86° |
| 2026-05-06 12:31 | 49.02118 | 2.56249 | 365 ft | 17 kts | 56° |
| 2026-05-06 12:32 | 49.02218 | 2.56282 | 368 ft | 16 kts | 346° |
| 2026-05-06 12:32 | 49.02287 | 2.56229 | 366 ft | 9 kts | 322° |
| 2026-05-06 12:32 | 49.02320 | 2.56151 | 367 ft | 8 kts | 275° |
| 2026-05-06 12:32 | 49.02313 | 2.56008 | 364 ft | 32 kts | 263° |
| 2026-05-06 12:33 | 49.02279 | 2.55328 | 367 ft | 94 kts | 265° |
| 2026-05-06 12:33 | 49.02212 | 2.54057 | 363 ft | 146 kts | 264° |
| 2026-05-06 12:33 | 49.02098 | 2.52353 | 731 ft | 156 kts | 270° |
| 2026-05-06 12:33 | 49.01985 | 2.50773 | 1456 ft | 153 kts | 268° |
| 2026-05-06 12:34 | 49.01883 | 2.49104 | 1916 ft | 162 kts | 270° |
| 2026-05-06 12:34 | 49.01810 | 2.47361 | 2357 ft | 175 kts | 271° |
| 2026-05-06 12:34 | 49.01730 | 2.45398 | 2646 ft | 197 kts | 269° |
| 2026-05-06 12:34 | 49.01628 | 2.43214 | 3010 ft | 214 kts | 270° |
| 2026-05-06 12:35 | 49.01511 | 2.40874 | 3424 ft | 231 kts | 268° |
| 2026-05-06 12:35 | 49.01375 | 2.38340 | 3802 ft | 252 kts | 268° |
| 2026-05-06 12:35 | 49.01339 | 2.35627 | 4474 ft | 258 kts | 279° |
| 2026-05-06 12:35 | 49.01608 | 2.32890 | 5239 ft | 259 kts | 284° |
| 2026-05-06 12:36 | 49.01940 | 2.30214 | 5888 ft | 262 kts | 284° |
| 2026-05-06 12:36 | 49.02284 | 2.27467 | 6517 ft | 266 kts | 284° |
| 2026-05-06 12:36 | 49.02627 | 2.24694 | 7183 ft | 268 kts | 283° |
| 2026-05-06 12:36 | 49.02972 | 2.21868 | 7822 ft | 272 kts | 283° |
| 2026-05-06 12:37 | 49.03317 | 2.19013 | 8523 ft | 275 kts | 283° |
| 2026-05-06 12:37 | 49.03664 | 2.16126 | 9232 ft | 279 kts | 282° |
| 2026-05-06 12:37 | 49.03925 | 2.13168 | 9904 ft | 284 kts | 276° |
| 2026-05-06 12:37 | 49.04098 | 2.10105 | 10337 ft | 298 kts | 276° |
| 2026-05-06 12:38 | 49.04263 | 2.06864 | 10615 ft | 316 kts | 275° |
| 2026-05-06 12:38 | 49.04439 | 2.03440 | 10901 ft | 332 kts | 275° |
| 2026-05-06 12:38 | 49.04623 | 1.99845 | 11186 ft | 348 kts | 275° |
| 2026-05-06 12:38 | 49.04814 | 1.96095 | 11568 ft | 360 kts | 275° |
| 2026-05-06 12:39 | 49.05009 | 1.92257 | 12177 ft | 365 kts | 275° |
| 2026-05-06 12:39 | 49.05206 | 1.88378 | 12814 ft | 368 kts | 275° |
| 2026-05-06 12:39 | 49.05404 | 1.84468 | 13486 ft | 371 kts | 275° |
| 2026-05-06 12:39 | 49.05602 | 1.80529 | 14059 ft | 375 kts | 275° |
| 2026-05-06 12:40 | 49.05799 | 1.76551 | 14591 ft | 379 kts | 275° |
| 2026-05-06 12:40 | 49.05999 | 1.72527 | 15139 ft | 382 kts | 275° |
| 2026-05-06 12:40 | 49.06198 | 1.68472 | 15688 ft | 385 kts | 275° |
| 2026-05-06 12:40 | 49.06383 | 1.64376 | 16226 ft | 388 kts | 272° |
| 2026-05-06 12:41 | 49.06283 | 1.60299 | 16798 ft | 391 kts | 264° |
| 2026-05-06 12:41 | 49.05966 | 1.56165 | 17356 ft | 394 kts | 263° |
| 2026-05-06 12:41 | 49.05623 | 1.51995 | 17934 ft | 397 kts | 263° |
| 2026-05-06 12:41 | 49.05278 | 1.47794 | 18501 ft | 400 kts | 263° |
| 2026-05-06 12:42 | 49.04934 | 1.43568 | 18991 ft | 404 kts | 263° |
| 2026-05-06 12:42 | 49.04587 | 1.39301 | 19450 ft | 408 kts | 263° |
| 2026-05-06 12:42 | 49.04235 | 1.34984 | 19954 ft | 412 kts | 263° |
| 2026-05-06 12:42 | 49.03880 | 1.30632 | 20452 ft | 416 kts | 263° |
| 2026-05-06 12:43 | 49.03513 | 1.26240 | 20957 ft | 419 kts | 263° |
| 2026-05-06 12:43 | 49.02894 | 1.21881 | 21464 ft | 423 kts | 252° |
| 2026-05-06 12:43 | 49.01734 | 1.17739 | 21994 ft | 427 kts | 244° |
| 2026-05-06 12:43 | 49.00371 | 1.13753 | 22508 ft | 431 kts | 243° |
| 2026-05-06 12:44 | 48.98963 | 1.09704 | 23006 ft | 434 kts | 243° |
| 2026-05-06 12:44 | 48.97545 | 1.05612 | 23533 ft | 438 kts | 243° |
| 2026-05-06 12:44 | 48.96121 | 1.01495 | 23955 ft | 441 kts | 243° |
| 2026-05-06 12:44 | 48.94686 | 0.97340 | 24382 ft | 445 kts | 243° |
| 2026-05-06 12:45 | 48.93238 | 0.93154 | 24806 ft | 448 kts | 243° |
| 2026-05-06 12:45 | 48.91780 | 0.88948 | 25260 ft | 451 kts | 243° |
| 2026-05-06 12:45 | 48.88830 | 0.80453 | 26126 ft | 457 kts | 243° |
| 2026-05-06 12:46 | 48.87334 | 0.76181 | 26561 ft | 460 kts | 243° |
| 2026-05-06 12:46 | 48.85806 | 0.71894 | 26968 ft | 463 kts | 242° |
| 2026-05-06 12:46 | 48.84287 | 0.67647 | 27386 ft | 466 kts | 242° |
| 2026-05-06 12:46 | 48.82735 | 0.63305 | 27811 ft | 469 kts | 243° |
| 2026-05-06 12:47 | 48.81239 | 0.58901 | 28238 ft | 471 kts | 246° |
| 2026-05-06 12:47 | 48.80126 | 0.54232 | 28652 ft | 472 kts | 256° |
| 2026-05-06 12:47 | 48.79568 | 0.49327 | 29042 ft | 473 kts | 267° |
| 2026-05-06 12:47 | 48.79571 | 0.44339 | 29414 ft | 474 kts | 275° |
| 2026-05-06 12:48 | 48.79822 | 0.39343 | 29795 ft | 476 kts | 276° |
| 2026-05-06 12:48 | 48.80144 | 0.34326 | 30154 ft | 478 kts | 277° |
| 2026-05-06 12:48 | 48.80490 | 0.29300 | 30460 ft | 480 kts | 277° |
| 2026-05-06 12:48 | 48.80838 | 0.24256 | 30740 ft | 482 kts | 277° |
| 2026-05-06 12:49 | 48.81177 | 0.19171 | 31037 ft | 484 kts | 277° |
| 2026-05-06 12:49 | 48.81503 | 0.14078 | 31313 ft | 486 kts | 277° |
| 2026-05-06 12:49 | 48.81820 | 0.08973 | 31701 ft | 485 kts | 276° |
| 2026-05-06 12:49 | 48.82130 | 0.03878 | 32091 ft | 484 kts | 276° |
| 2026-05-06 12:50 | 48.82431 | -0.01137 | 32454 ft | 484 kts | 276° |
| 2026-05-06 12:50 | 48.82733 | -0.06222 | 32816 ft | 483 kts | 276° |
| 2026-05-06 12:50 | 48.83030 | -0.11302 | 33179 ft | 483 kts | 276° |
| 2026-05-06 12:50 | 48.83324 | -0.16368 | 33555 ft | 482 kts | 276° |
| 2026-05-06 12:51 | 48.83615 | -0.21436 | 33913 ft | 481 kts | 276° |
| 2026-05-06 12:51 | 48.83905 | -0.26499 | 34224 ft | 480 kts | 276° |
| 2026-05-06 12:51 | 48.84190 | -0.31545 | 34518 ft | 479 kts | 275° |
| 2026-05-06 12:51 | 48.84462 | -0.36579 | 34837 ft | 478 kts | 275° |
| 2026-05-06 12:52 | 48.84728 | -0.41607 | 35127 ft | 477 kts | 275° |
| 2026-05-06 12:52 | 48.84989 | -0.46633 | 35378 ft | 477 kts | 275° |
| 2026-05-06 12:52 | 48.85247 | -0.51655 | 35626 ft | 477 kts | 275° |
| 2026-05-06 12:52 | 48.85504 | -0.56671 | 35877 ft | 476 kts | 275° |
| 2026-05-06 12:53 | 48.85758 | -0.61616 | 36126 ft | 476 kts | 275° |
| 2026-05-06 12:53 | 48.86014 | -0.66616 | 36389 ft | 475 kts | 275° |
| 2026-05-06 12:53 | 48.86268 | -0.71623 | 36626 ft | 475 kts | 274° |
| 2026-05-06 12:53 | 48.86519 | -0.76619 | 36852 ft | 474 kts | 274° |
| 2026-05-06 12:54 | 48.86768 | -0.81627 | 37069 ft | 474 kts | 274° |
| 2026-05-06 12:54 | 48.87017 | -0.86635 | 37275 ft | 474 kts | 274° |
| 2026-05-06 12:54 | 48.87262 | -0.91634 | 37454 ft | 475 kts | 274° |
| 2026-05-06 12:54 | 48.87505 | -0.96633 | 37660 ft | 475 kts | 274° |
| 2026-05-06 12:55 | 48.87746 | -1.01633 | 37840 ft | 475 kts | 274° |
| 2026-05-06 12:55 | 48.87984 | -1.06644 | 37953 ft | 476 kts | 274° |
| 2026-05-06 12:55 | 48.88221 | -1.11683 | 37961 ft | 480 kts | 274° |
| 2026-05-06 12:56 | 48.88695 | -1.21812 | 37967 ft | 480 kts | 274° |
| 2026-05-06 12:56 | 48.89159 | -1.31884 | 37967 ft | 480 kts | 274° |
| 2026-05-06 12:57 | 48.89615 | -1.42013 | 37966 ft | 480 kts | 274° |
| 2026-05-06 12:57 | 48.90062 | -1.52140 | 37968 ft | 480 kts | 274° |
| 2026-05-06 12:58 | 48.90503 | -1.62267 | 37973 ft | 481 kts | 274° |
| 2026-05-06 12:58 | 48.90838 | -1.72417 | 37974 ft | 481 kts | 269° |
| 2026-05-06 12:59 | 48.89888 | -1.82478 | 37971 ft | 481 kts | 258° |
| 2026-05-06 12:59 | 48.88335 | -1.92382 | 37974 ft | 482 kts | 256° |
| 2026-05-06 13:00 | 48.86687 | -2.02245 | 37968 ft | 482 kts | 256° |
| 2026-05-06 13:00 | 48.85050 | -2.12064 | 37967 ft | 482 kts | 256° |
| 2026-05-06 13:01 | 48.83416 | -2.21940 | 37966 ft | 482 kts | 256° |
| 2026-05-06 13:01 | 48.81784 | -2.31804 | 37970 ft | 481 kts | 256° |
| 2026-05-06 13:02 | 48.80146 | -2.41654 | 37965 ft | 481 kts | 256° |
| 2026-05-06 13:02 | 48.78509 | -2.51440 | 37968 ft | 481 kts | 256° |
| 2026-05-06 13:03 | 48.76896 | -2.61289 | 37970 ft | 481 kts | 258° |
| 2026-05-06 13:03 | 48.75894 | -2.69582 | 37965 ft | 480 kts | 261° |
| 2026-05-06 13:04 | 48.74825 | -2.79572 | 37967 ft | 480 kts | 261° |
| 2026-05-06 13:04 | 48.73696 | -2.89541 | 37969 ft | 480 kts | 260° |
| 2026-05-06 13:05 | 48.72506 | -2.99499 | 37967 ft | 480 kts | 260° |
| 2026-05-06 13:05 | 48.71290 | -3.09442 | 37972 ft | 480 kts | 259° |
| 2026-05-06 13:06 | 48.70068 | -3.19376 | 37986 ft | 480 kts | 259° |
| 2026-05-06 13:06 | 48.68841 | -3.29297 | 37991 ft | 479 kts | 259° |
| 2026-05-06 13:07 | 48.67605 | -3.39218 | 37995 ft | 479 kts | 259° |
| 2026-05-06 13:07 | 48.66370 | -3.49062 | 37994 ft | 479 kts | 259° |
| 2026-05-06 13:08 | 48.65118 | -3.58975 | 37991 ft | 479 kts | 259° |
| 2026-05-06 13:08 | 48.63859 | -3.68872 | 37992 ft | 478 kts | 259° |
| 2026-05-06 13:09 | 48.62593 | -3.78745 | 37994 ft | 478 kts | 259° |
| 2026-05-06 13:09 | 48.61326 | -3.88554 | 37993 ft | 478 kts | 259° |
| 2026-05-06 13:10 | 48.60046 | -3.98400 | 37991 ft | 478 kts | 259° |
| 2026-05-06 13:10 | 48.58756 | -4.08255 | 37995 ft | 478 kts | 259° |
| 2026-05-06 13:11 | 48.57456 | -4.18105 | 37993 ft | 478 kts | 259° |
| 2026-05-06 13:11 | 48.56147 | -4.27947 | 37993 ft | 478 kts | 259° |
| 2026-05-06 13:12 | 48.54827 | -4.37796 | 37996 ft | 478 kts | 259° |
| 2026-05-06 13:12 | 48.53507 | -4.47618 | 37994 ft | 478 kts | 259° |
| 2026-05-06 13:13 | 48.52174 | -4.57438 | 37997 ft | 477 kts | 258° |
| 2026-05-06 13:13 | 48.50830 | -4.67243 | 37991 ft | 477 kts | 258° |
| 2026-05-06 13:14 | 48.49482 | -4.77036 | 37988 ft | 476 kts | 258° |
| 2026-05-06 13:14 | 48.48139 | -4.86755 | 37999 ft | 476 kts | 258° |
| 2026-05-06 13:15 | 48.46786 | -4.96526 | 38001 ft | 476 kts | 258° |
| 2026-05-06 13:15 | 48.45422 | -5.06289 | 38004 ft | 476 kts | 258° |
| 2026-05-06 13:16 | 48.44044 | -5.16058 | 38008 ft | 476 kts | 258° |
| 2026-05-06 13:16 | 48.42659 | -5.25811 | 38006 ft | 476 kts | 258° |
| 2026-05-06 13:17 | 48.41265 | -5.35561 | 38009 ft | 476 kts | 258° |
| 2026-05-06 13:17 | 48.39863 | -5.45306 | 38005 ft | 476 kts | 258° |
| 2026-05-06 13:18 | 48.38461 | -5.54991 | 38013 ft | 476 kts | 258° |
| 2026-05-06 13:18 | 48.37042 | -5.64732 | 38010 ft | 476 kts | 258° |
| 2026-05-06 13:19 | 48.35616 | -5.74457 | 38016 ft | 476 kts | 258° |
| 2026-05-06 13:19 | 48.34182 | -5.84182 | 38019 ft | 476 kts | 258° |
| 2026-05-06 13:20 | 48.32738 | -5.93909 | 38016 ft | 477 kts | 258° |
| 2026-05-06 13:20 | 48.31284 | -6.03638 | 38023 ft | 477 kts | 257° |
| 2026-05-06 13:21 | 48.29832 | -6.13299 | 38025 ft | 477 kts | 257° |
| 2026-05-06 13:21 | 48.28364 | -6.23025 | 38023 ft | 477 kts | 257° |
| 2026-05-06 13:22 | 48.26890 | -6.32746 | 38029 ft | 477 kts | 257° |
| 2026-05-06 13:22 | 48.25400 | -6.42462 | 38030 ft | 477 kts | 257° |
| 2026-05-06 13:23 | 48.23904 | -6.52158 | 38032 ft | 477 kts | 257° |
| 2026-05-06 13:23 | 48.22412 | -6.61797 | 38028 ft | 477 kts | 257° |
| 2026-05-06 13:24 | 48.20904 | -6.71490 | 38035 ft | 477 kts | 257° |
| 2026-05-06 13:24 | 48.19388 | -6.81173 | 38035 ft | 477 kts | 257° |
| 2026-05-06 13:25 | 48.17864 | -6.90843 | 38036 ft | 477 kts | 257° |
| 2026-05-06 13:25 | 48.16329 | -7.00510 | 38035 ft | 477 kts | 257° |
| 2026-05-06 13:26 | 48.14786 | -7.10172 | 38039 ft | 477 kts | 257° |
| 2026-05-06 13:26 | 48.13234 | -7.19827 | 38048 ft | 477 kts | 257° |
| 2026-05-06 13:27 | 48.11681 | -7.29418 | 38042 ft | 477 kts | 257° |
| 2026-05-06 13:27 | 48.10113 | -7.39063 | 38036 ft | 477 kts | 256° |
| 2026-05-06 13:28 | 48.08538 | -7.48702 | 38045 ft | 477 kts | 257° |
| 2026-05-06 13:28 | 48.06959 | -7.58339 | 38047 ft | 477 kts | 256° |
| 2026-05-06 13:29 | 48.05369 | -7.67982 | 38050 ft | 477 kts | 256° |
| 2026-05-06 13:29 | 48.03767 | -7.77625 | 38035 ft | 477 kts | 256° |
| 2026-05-06 13:30 | 48.02157 | -7.87263 | 38039 ft | 478 kts | 256° |
| 2026-05-06 13:30 | 48.00584 | -7.96844 | 38052 ft | 478 kts | 259° |
| 2026-05-06 13:31 | 48.00027 | -8.06703 | 38039 ft | 477 kts | 269° |
| 2026-05-06 13:31 | 48.00002 | -8.16606 | 38051 ft | 477 kts | 270° |
| 2026-05-06 13:32 | 48.00049 | -8.26527 | 38053 ft | 477 kts | 270° |
| 2026-05-06 13:32 | 48.00077 | -8.36453 | 38048 ft | 477 kts | 270° |
| 2026-05-06 13:33 | 48.00079 | -8.46360 | 38045 ft | 477 kts | 270° |
| 2026-05-06 13:33 | 48.00066 | -8.56281 | 38048 ft | 477 kts | 270° |
| 2026-05-06 13:34 | 48.00044 | -8.66204 | 38053 ft | 478 kts | 270° |
| 2026-05-06 13:34 | 47.99783 | -8.76101 | 38045 ft | 478 kts | 262° |
| 2026-05-06 13:35 | 47.98713 | -8.85845 | 38053 ft | 478 kts | 260° |
| 2026-05-06 13:35 | 47.97489 | -8.95614 | 38050 ft | 478 kts | 259° |
| 2026-05-06 13:36 | 47.96244 | -9.05375 | 38051 ft | 478 kts | 259° |
| 2026-05-06 13:36 | 47.94997 | -9.15139 | 38050 ft | 479 kts | 259° |
| 2026-05-06 13:37 | 47.93753 | -9.24885 | 38059 ft | 478 kts | 259° |
| 2026-05-06 13:37 | 47.92510 | -9.34575 | 38048 ft | 478 kts | 259° |
| 2026-05-06 13:38 | 47.91252 | -9.44328 | 38056 ft | 478 kts | 259° |
| 2026-05-06 13:38 | 47.89986 | -9.54066 | 38059 ft | 478 kts | 259° |
| 2026-05-06 13:39 | 47.88710 | -9.63804 | 38052 ft | 479 kts | 259° |
| 2026-05-06 13:39 | 47.87424 | -9.73550 | 38062 ft | 479 kts | 259° |
| 2026-05-06 13:40 | 47.86137 | -9.83281 | 38061 ft | 479 kts | 259° |
| 2026-05-06 13:40 | 47.84844 | -9.92942 | 38067 ft | 479 kts | 259° |
| 2026-05-06 13:41 | 47.83552 | -10.02677 | 38062 ft | 479 kts | 259° |
| 2026-05-06 13:41 | 47.82243 | -10.12414 | 38063 ft | 479 kts | 259° |
| 2026-05-06 13:42 | 47.80919 | -10.22127 | 38062 ft | 479 kts | 259° |
| 2026-05-06 13:42 | 47.79584 | -10.31845 | 38073 ft | 479 kts | 259° |
| 2026-05-06 13:43 | 47.78240 | -10.41562 | 38065 ft | 479 kts | 259° |
| 2026-05-06 13:43 | 47.76889 | -10.51278 | 38061 ft | 479 kts | 259° |
| 2026-05-06 13:44 | 47.75529 | -10.60979 | 38079 ft | 479 kts | 259° |
| 2026-05-06 13:44 | 47.74155 | -10.70675 | 38080 ft | 479 kts | 259° |
| 2026-05-06 13:45 | 47.72783 | -10.80295 | 38071 ft | 480 kts | 259° |
| 2026-05-06 13:45 | 47.70698 | -10.94838 | 38056 ft | 480 kts | 259° |
| 2026-05-06 13:46 | 47.69300 | -11.04533 | 38074 ft | 480 kts | 259° |
| 2026-05-06 13:46 | 47.67892 | -11.14229 | 38075 ft | 480 kts | 259° |
| 2026-05-06 13:47 | 47.66479 | -11.23911 | 38077 ft | 480 kts | 259° |
| 2026-05-06 13:47 | 47.65063 | -11.33542 | 38080 ft | 480 kts | 258° |
| 2026-05-06 13:48 | 47.63632 | -11.43218 | 38083 ft | 480 kts | 258° |
| 2026-05-06 13:48 | 47.62437 | -11.51246 | 38077 ft | 480 kts | 258° |
| 2026-05-06 13:49 | 47.60984 | -11.60928 | 38084 ft | 480 kts | 258° |
| 2026-05-06 13:49 | 47.59523 | -11.70590 | 38084 ft | 480 kts | 258° |
| 2026-05-06 13:50 | 47.58057 | -11.80250 | 38081 ft | 481 kts | 258° |
| 2026-05-06 13:50 | 47.56584 | -11.89899 | 38087 ft | 481 kts | 258° |
| 2026-05-06 13:51 | 47.55100 | -11.99565 | 38084 ft | 481 kts | 258° |
| 2026-05-06 13:51 | 47.53611 | -12.09211 | 38085 ft | 481 kts | 258° |
| 2026-05-06 13:52 | 47.52122 | -12.18793 | 38090 ft | 481 kts | 258° |
| 2026-05-06 13:52 | 47.50615 | -12.28432 | 38088 ft | 481 kts | 258° |
| 2026-05-06 13:53 | 47.49094 | -12.38079 | 38091 ft | 481 kts | 258° |
| 2026-05-06 13:53 | 47.47574 | -12.47706 | 38093 ft | 481 kts | 258° |
| 2026-05-06 13:54 | 47.46044 | -12.57344 | 38096 ft | 481 kts | 258° |
| 2026-05-06 13:54 | 47.44512 | -12.66916 | 38094 ft | 481 kts | 258° |
| 2026-05-06 13:55 | 47.42961 | -12.76542 | 38097 ft | 481 kts | 258° |
| 2026-05-06 13:55 | 47.41399 | -12.86164 | 38097 ft | 482 kts | 258° |
| 2026-05-06 13:56 | 47.39830 | -12.95790 | 38102 ft | 482 kts | 258° |
| 2026-05-06 13:56 | 47.38257 | -13.05396 | 38101 ft | 482 kts | 258° |
| 2026-05-06 13:57 | 47.36675 | -13.15011 | 38100 ft | 482 kts | 258° |
| 2026-05-06 13:57 | 47.35083 | -13.24625 | 38100 ft | 482 kts | 258° |
| 2026-05-06 13:58 | 47.33496 | -13.34154 | 38103 ft | 482 kts | 258° |
| 2026-05-06 13:58 | 47.31888 | -13.43755 | 38107 ft | 482 kts | 258° |
| 2026-05-06 13:59 | 47.30273 | -13.53351 | 38107 ft | 482 kts | 258° |
| 2026-05-06 13:59 | 47.28650 | -13.62936 | 38109 ft | 482 kts | 258° |
| 2026-05-06 14:00 | 47.27023 | -13.72511 | 38105 ft | 482 kts | 258° |
| 2026-05-06 14:00 | 47.25384 | -13.82090 | 38109 ft | 482 kts | 258° |
| 2026-05-06 14:01 | 47.23741 | -13.91597 | 38115 ft | 482 kts | 258° |
| 2026-05-06 14:01 | 47.22080 | -14.01160 | 38110 ft | 482 kts | 258° |
| 2026-05-06 14:02 | 47.20421 | -14.10713 | 38115 ft | 482 kts | 258° |
| 2026-05-06 14:02 | 47.18753 | -14.20273 | 38115 ft | 482 kts | 258° |
| 2026-05-06 14:03 | 47.17075 | -14.29826 | 38120 ft | 482 kts | 258° |
| 2026-05-06 14:03 | 47.15399 | -14.39301 | 38120 ft | 482 kts | 258° |
| 2026-05-06 14:04 | 47.13702 | -14.48843 | 38125 ft | 482 kts | 258° |
| 2026-05-06 14:04 | 47.11996 | -14.58389 | 38124 ft | 482 kts | 258° |
| 2026-05-06 14:05 | 47.10284 | -14.67913 | 38122 ft | 482 kts | 258° |
| 2026-05-06 14:05 | 47.08565 | -14.77434 | 38125 ft | 482 kts | 258° |
| 2026-05-06 14:06 | 47.06840 | -14.86943 | 38124 ft | 482 kts | 258° |
| 2026-05-06 14:06 | 47.05116 | -14.96385 | 38127 ft | 482 kts | 258° |
| 2026-05-06 14:07 | 47.03375 | -15.05877 | 38130 ft | 482 kts | 258° |
| 2026-05-06 14:07 | 47.01630 | -15.15364 | 38132 ft | 482 kts | 258° |
| 2026-05-06 14:08 | 46.99877 | -15.24841 | 38129 ft | 482 kts | 258° |
| 2026-05-06 14:08 | 46.98114 | -15.34322 | 38131 ft | 482 kts | 258° |
| 2026-05-06 14:09 | 46.96344 | -15.43780 | 38132 ft | 482 kts | 258° |
| 2026-05-06 14:09 | 46.94560 | -15.53236 | 38135 ft | 481 kts | 258° |
| 2026-05-06 14:10 | 46.92787 | -15.62616 | 38136 ft | 481 kts | 258° |
| 2026-05-06 14:10 | 46.90991 | -15.72051 | 38139 ft | 481 kts | 258° |
| 2026-05-06 14:11 | 46.89192 | -15.81465 | 38134 ft | 480 kts | 258° |
| 2026-05-06 14:11 | 46.87391 | -15.90864 | 38139 ft | 480 kts | 258° |
| 2026-05-06 14:12 | 46.85579 | -16.00253 | 38142 ft | 479 kts | 258° |
| 2026-05-06 14:12 | 46.83761 | -16.09614 | 38135 ft | 479 kts | 258° |
| 2026-05-06 14:13 | 46.81942 | -16.18962 | 38144 ft | 478 kts | 258° |
| 2026-05-06 14:13 | 46.80115 | -16.28297 | 38140 ft | 477 kts | 258° |
| 2026-05-06 14:14 | 46.78289 | -16.37607 | 38144 ft | 477 kts | 258° |
| 2026-05-06 14:14 | 46.76465 | -16.46844 | 38146 ft | 476 kts | 258° |
| 2026-05-06 14:15 | 46.74626 | -16.56114 | 38147 ft | 475 kts | 257° |
| 2026-05-06 14:15 | 46.72781 | -16.65366 | 38148 ft | 475 kts | 257° |
| 2026-05-06 14:16 | 46.70929 | -16.74608 | 38147 ft | 475 kts | 257° |
| 2026-05-06 14:16 | 46.69066 | -16.83840 | 38147 ft | 475 kts | 257° |
| 2026-05-06 14:17 | 46.67200 | -16.93059 | 38145 ft | 474 kts | 257° |
| 2026-05-06 14:17 | 46.65335 | -17.02218 | 38158 ft | 474 kts | 257° |
| 2026-05-06 14:18 | 46.63451 | -17.11430 | 38156 ft | 475 kts | 257° |
| 2026-05-06 14:18 | 46.61559 | -17.20654 | 38147 ft | 475 kts | 257° |
| 2026-05-06 14:19 | 46.59674 | -17.29815 | 38148 ft | 475 kts | 257° |
| 2026-05-06 14:19 | 46.57764 | -17.39029 | 38153 ft | 475 kts | 257° |
| 2026-05-06 14:20 | 46.55848 | -17.48230 | 38153 ft | 475 kts | 257° |
| 2026-05-06 14:20 | 46.53927 | -17.57420 | 38149 ft | 475 kts | 257° |
| 2026-05-06 14:21 | 46.51999 | -17.66610 | 38147 ft | 475 kts | 257° |
| 2026-05-06 14:21 | 46.50071 | -17.75779 | 38151 ft | 475 kts | 257° |
| 2026-05-06 14:22 | 46.48137 | -17.84941 | 38147 ft | 474 kts | 256° |
| 2026-05-06 14:22 | 46.46193 | -17.94088 | 38151 ft | 474 kts | 256° |
| 2026-05-06 14:23 | 46.44253 | -18.03165 | 38149 ft | 474 kts | 256° |
| 2026-05-06 14:23 | 46.42297 | -18.12280 | 38154 ft | 473 kts | 256° |
| 2026-05-06 14:24 | 46.40335 | -18.21385 | 38152 ft | 472 kts | 256° |
| 2026-05-06 14:24 | 46.38369 | -18.30466 | 38157 ft | 472 kts | 256° |
| 2026-05-06 14:25 | 46.36399 | -18.39530 | 38156 ft | 472 kts | 256° |
| 2026-05-06 14:25 | 46.34421 | -18.48588 | 38156 ft | 471 kts | 256° |
| 2026-05-06 14:26 | 46.32452 | -18.57552 | 38158 ft | 471 kts | 256° |
| 2026-05-06 14:26 | 46.30468 | -18.66561 | 38153 ft | 470 kts | 256° |
| 2026-05-06 14:27 | 46.28479 | -18.75552 | 38152 ft | 469 kts | 256° |
| 2026-05-06 14:27 | 46.26480 | -18.84538 | 38162 ft | 469 kts | 256° |
| 2026-05-06 14:28 | 46.24481 | -18.93508 | 38162 ft | 468 kts | 256° |
| 2026-05-06 14:28 | 46.22474 | -19.02461 | 38154 ft | 467 kts | 256° |
| 2026-05-06 14:29 | 46.20482 | -19.11318 | 38159 ft | 466 kts | 256° |
| 2026-05-06 14:29 | 46.18479 | -19.20208 | 38165 ft | 465 kts | 256° |
| 2026-05-06 14:30 | 46.16469 | -19.29079 | 38164 ft | 464 kts | 256° |
| 2026-05-06 14:30 | 46.14454 | -19.37925 | 38161 ft | 464 kts | 256° |
| 2026-05-06 14:31 | 46.12434 | -19.46754 | 38157 ft | 463 kts | 255° |
| 2026-05-06 14:31 | 46.10413 | -19.55564 | 38159 ft | 463 kts | 255° |
| 2026-05-06 14:32 | 46.08387 | -19.64371 | 38161 ft | 462 kts | 255° |
| 2026-05-06 14:32 | 46.06367 | -19.73101 | 38158 ft | 462 kts | 255° |
| 2026-05-06 14:33 | 46.04321 | -19.81885 | 38161 ft | 462 kts | 255° |
| 2026-05-06 14:33 | 46.02272 | -19.90641 | 38161 ft | 461 kts | 255° |
| 2026-05-06 14:34 | 46.00169 | -19.99359 | 38163 ft | 463 kts | 251° |
| 2026-05-06 14:34 | 45.97503 | -20.07802 | 38162 ft | 464 kts | 249° |
| 2026-05-06 14:35 | 45.94717 | -20.16163 | 38159 ft | 463 kts | 248° |
| 2026-05-06 14:35 | 45.91917 | -20.24498 | 38161 ft | 463 kts | 248° |
| 2026-05-06 14:36 | 45.89587 | -20.31419 | 38162 ft | 463 kts | 248° |
| 2026-05-06 14:36 | 45.86782 | -20.39738 | 38162 ft | 463 kts | 248° |
| 2026-05-06 14:37 | 45.83975 | -20.48056 | 38165 ft | 463 kts | 249° |
| 2026-05-06 14:37 | 45.81164 | -20.56364 | 38163 ft | 463 kts | 248° |
| 2026-05-06 14:38 | 45.78345 | -20.64667 | 38164 ft | 463 kts | 248° |
| 2026-05-06 14:38 | 45.75513 | -20.72984 | 38163 ft | 464 kts | 248° |
| 2026-05-06 14:39 | 45.72676 | -20.81284 | 38165 ft | 464 kts | 248° |
| 2026-05-06 14:39 | 45.69850 | -20.89529 | 38164 ft | 464 kts | 248° |
| 2026-05-06 14:40 | 45.66999 | -20.97822 | 38166 ft | 465 kts | 248° |
| 2026-05-06 14:40 | 45.64139 | -21.06115 | 38165 ft | 464 kts | 247° |
| 2026-05-06 14:41 | 45.61278 | -21.14387 | 38166 ft | 464 kts | 247° |
| 2026-05-06 14:41 | 45.58413 | -21.22645 | 38166 ft | 463 kts | 246° |
| 2026-05-06 14:42 | 45.55549 | -21.30874 | 38163 ft | 463 kts | 246° |
| 2026-05-06 14:42 | 45.52699 | -21.39037 | 38164 ft | 462 kts | 246° |
| 2026-05-06 14:43 | 45.49825 | -21.47246 | 38163 ft | 462 kts | 246° |
| 2026-05-06 14:43 | 45.46948 | -21.55434 | 38163 ft | 462 kts | 246° |
| 2026-05-06 14:44 | 45.44065 | -21.63614 | 38165 ft | 462 kts | 246° |
| 2026-05-06 14:45 | 45.39731 | -21.75862 | 38162 ft | 461 kts | 245° |
| 2026-05-06 14:45 | 45.36839 | -21.84003 | 38167 ft | 462 kts | 245° |
| 2026-05-06 14:46 | 45.33937 | -21.92151 | 38163 ft | 461 kts | 245° |
| 2026-05-06 14:46 | 45.31029 | -22.00287 | 38164 ft | 462 kts | 245° |
| 2026-05-06 14:47 | 45.28136 | -22.08360 | 38162 ft | 461 kts | 245° |
| 2026-05-06 14:47 | 45.25219 | -22.16479 | 38164 ft | 461 kts | 245° |
| 2026-05-06 14:48 | 45.22299 | -22.24579 | 38163 ft | 461 kts | 245° |
| 2026-05-06 14:48 | 45.19376 | -22.32664 | 38161 ft | 460 kts | 245° |
| 2026-05-06 14:49 | 45.16447 | -22.40744 | 38170 ft | 460 kts | 245° |
| 2026-05-06 14:49 | 45.13519 | -22.48798 | 38162 ft | 459 kts | 245° |
| 2026-05-06 14:50 | 45.10605 | -22.56788 | 38170 ft | 459 kts | 245° |
| 2026-05-06 14:50 | 45.07672 | -22.64806 | 38162 ft | 458 kts | 245° |
| 2026-05-06 14:51 | 45.04736 | -22.72802 | 38160 ft | 458 kts | 245° |
| 2026-05-06 14:51 | 45.01799 | -22.80775 | 38152 ft | 457 kts | 245° |
| 2026-05-06 14:52 | 44.98857 | -22.88741 | 38155 ft | 456 kts | 245° |
| 2026-05-06 14:52 | 44.95936 | -22.96638 | 38161 ft | 456 kts | 245° |
| 2026-05-06 14:53 | 44.93002 | -23.04556 | 38154 ft | 455 kts | 245° |
| 2026-05-06 14:53 | 44.90068 | -23.12465 | 38159 ft | 454 kts | 245° |
| 2026-05-06 14:54 | 44.87130 | -23.20351 | 38161 ft | 454 kts | 245° |
| 2026-05-06 14:54 | 44.84184 | -23.28223 | 38157 ft | 453 kts | 245° |
| 2026-05-06 14:55 | 44.81237 | -23.36068 | 38159 ft | 453 kts | 245° |
| 2026-05-06 14:55 | 44.78285 | -23.43897 | 38162 ft | 452 kts | 245° |
| 2026-05-06 14:56 | 44.75338 | -23.51709 | 38161 ft | 452 kts | 245° |
| 2026-05-06 14:56 | 44.72385 | -23.59514 | 38160 ft | 451 kts | 245° |
| 2026-05-06 14:57 | 44.69431 | -23.67294 | 38154 ft | 451 kts | 245° |
| 2026-05-06 14:57 | 44.66489 | -23.75016 | 38156 ft | 450 kts | 245° |
| 2026-05-06 14:58 | 44.63531 | -23.82762 | 38153 ft | 450 kts | 245° |
| 2026-05-06 14:58 | 44.60567 | -23.90496 | 38154 ft | 449 kts | 245° |
| 2026-05-06 14:59 | 44.57595 | -23.98220 | 38152 ft | 449 kts | 245° |
| 2026-05-06 14:59 | 44.54631 | -24.05923 | 38154 ft | 448 kts | 245° |
| 2026-05-06 15:00 | 44.51672 | -24.13602 | 38151 ft | 448 kts | 245° |
| 2026-05-06 15:00 | 44.48703 | -24.21274 | 38150 ft | 448 kts | 245° |
| 2026-05-06 15:01 | 44.45731 | -24.28933 | 38152 ft | 447 kts | 244° |
| 2026-05-06 15:01 | 44.42751 | -24.36574 | 38155 ft | 447 kts | 244° |
| 2026-05-06 15:02 | 44.39788 | -24.44154 | 38152 ft | 446 kts | 244° |
| 2026-05-06 15:02 | 44.36804 | -24.51772 | 38151 ft | 446 kts | 244° |
| 2026-05-06 15:03 | 44.33822 | -24.59365 | 38149 ft | 445 kts | 244° |
| 2026-05-06 15:03 | 44.30839 | -24.66941 | 38147 ft | 445 kts | 244° |
| 2026-05-06 15:04 | 44.27849 | -24.74516 | 38148 ft | 445 kts | 244° |
| 2026-05-06 15:04 | 44.24883 | -24.82013 | 38147 ft | 444 kts | 244° |
| 2026-05-06 15:05 | 44.21895 | -24.89546 | 38153 ft | 444 kts | 244° |
| 2026-05-06 15:05 | 44.18902 | -24.97068 | 38149 ft | 444 kts | 244° |
| 2026-05-06 15:06 | 44.15904 | -25.04586 | 38147 ft | 443 kts | 244° |
| 2026-05-06 15:06 | 44.12906 | -25.12082 | 38147 ft | 443 kts | 244° |
| 2026-05-06 15:07 | 44.09905 | -25.19569 | 38146 ft | 443 kts | 244° |
| 2026-05-06 15:07 | 44.06895 | -25.27057 | 38151 ft | 443 kts | 244° |
| 2026-05-06 15:08 | 44.03884 | -25.34528 | 38150 ft | 443 kts | 244° |
| 2026-05-06 15:08 | 44.00876 | -25.41986 | 38144 ft | 442 kts | 244° |
| 2026-05-06 15:09 | 43.97862 | -25.49434 | 38149 ft | 442 kts | 244° |
| 2026-05-06 15:09 | 43.94836 | -25.56878 | 38148 ft | 442 kts | 244° |
| 2026-05-06 15:10 | 43.91827 | -25.64257 | 38146 ft | 442 kts | 244° |
| 2026-05-06 15:10 | 43.88791 | -25.71679 | 38144 ft | 442 kts | 244° |
| 2026-05-06 15:11 | 43.85756 | -25.79091 | 38156 ft | 442 kts | 244° |
| 2026-05-06 15:11 | 43.82719 | -25.86488 | 38141 ft | 442 kts | 243° |
| 2026-05-06 15:12 | 43.79677 | -25.93881 | 38150 ft | 442 kts | 243° |
| 2026-05-06 15:12 | 43.76628 | -26.01267 | 38152 ft | 442 kts | 243° |
| 2026-05-06 15:13 | 43.73576 | -26.08641 | 38149 ft | 442 kts | 243° |
| 2026-05-06 15:13 | 43.70517 | -26.16016 | 38146 ft | 442 kts | 243° |
| 2026-05-06 15:14 | 43.67473 | -26.23335 | 38146 ft | 442 kts | 243° |
| 2026-05-06 15:14 | 43.64403 | -26.30693 | 38143 ft | 442 kts | 243° |
| 2026-05-06 15:15 | 43.61333 | -26.38041 | 38147 ft | 442 kts | 243° |
| 2026-05-06 15:15 | 43.58255 | -26.45389 | 38141 ft | 442 kts | 243° |
| 2026-05-06 15:16 | 43.55171 | -26.52731 | 38144 ft | 442 kts | 243° |
| 2026-05-06 15:16 | 43.52077 | -26.60075 | 38138 ft | 442 kts | 243° |
| 2026-05-06 15:17 | 43.49002 | -26.67358 | 38145 ft | 442 kts | 243° |
| 2026-05-06 15:17 | 43.45906 | -26.74676 | 38143 ft | 442 kts | 243° |
| 2026-05-06 15:18 | 43.42804 | -26.81984 | 38141 ft | 442 kts | 243° |
| 2026-05-06 15:18 | 43.39697 | -26.89299 | 38140 ft | 443 kts | 243° |
| 2026-05-06 15:19 | 43.36588 | -26.96601 | 38139 ft | 443 kts | 243° |
| 2026-05-06 15:19 | 43.33487 | -27.03861 | 38136 ft | 443 kts | 243° |
| 2026-05-06 15:20 | 43.30364 | -27.11146 | 38139 ft | 443 kts | 243° |
| 2026-05-06 15:20 | 43.27233 | -27.18432 | 38136 ft | 443 kts | 243° |
| 2026-05-06 15:21 | 43.24097 | -27.25710 | 38137 ft | 443 kts | 243° |
| 2026-05-06 15:21 | 43.20960 | -27.32973 | 38136 ft | 443 kts | 242° |
| 2026-05-06 15:22 | 43.17819 | -27.40224 | 38135 ft | 442 kts | 242° |
| 2026-05-06 15:22 | 43.15205 | -27.46245 | 38133 ft | 442 kts | 242° |
| 2026-05-06 15:23 | 43.11545 | -27.54662 | 38133 ft | 442 kts | 242° |
| 2026-05-06 15:23 | 43.08391 | -27.61889 | 38137 ft | 442 kts | 242° |
| 2026-05-06 15:24 | 43.05744 | -27.67943 | 38132 ft | 442 kts | 242° |
| 2026-05-06 15:24 | 43.02603 | -27.75114 | 38129 ft | 442 kts | 242° |
| 2026-05-06 15:25 | 42.99440 | -27.82316 | 38128 ft | 441 kts | 242° |
| 2026-05-06 15:25 | 42.96279 | -27.89495 | 38130 ft | 441 kts | 242° |
| 2026-05-06 15:26 | 42.93111 | -27.96670 | 38131 ft | 441 kts | 242° |
| 2026-05-06 15:26 | 42.89954 | -28.03788 | 38131 ft | 441 kts | 242° |
| 2026-05-06 15:27 | 42.86781 | -28.10946 | 38132 ft | 440 kts | 242° |
| 2026-05-06 15:27 | 42.83611 | -28.18083 | 38129 ft | 440 kts | 242° |
| 2026-05-06 15:28 | 42.80431 | -28.25222 | 38132 ft | 440 kts | 242° |
| 2026-05-06 15:28 | 42.77249 | -28.32343 | 38131 ft | 440 kts | 242° |
| 2026-05-06 15:29 | 42.74065 | -28.39452 | 38129 ft | 440 kts | 242° |
| 2026-05-06 15:29 | 42.70875 | -28.46556 | 38130 ft | 440 kts | 242° |
| 2026-05-06 15:30 | 42.67702 | -28.53606 | 38130 ft | 440 kts | 242° |
| 2026-05-06 15:30 | 42.64507 | -28.60688 | 38130 ft | 439 kts | 242° |
| 2026-05-06 15:31 | 42.61308 | -28.67762 | 38127 ft | 439 kts | 242° |
| 2026-05-06 15:31 | 42.58109 | -28.74821 | 38125 ft | 439 kts | 242° |
| 2026-05-06 15:32 | 42.53305 | -28.85388 | 38132 ft | 438 kts | 242° |
| 2026-05-06 15:32 | 42.50101 | -28.92413 | 38128 ft | 438 kts | 242° |
| 2026-05-06 15:33 | 42.46896 | -28.99425 | 38130 ft | 438 kts | 242° |
| 2026-05-06 15:33 | 42.43686 | -29.06433 | 38129 ft | 437 kts | 242° |
| 2026-05-06 15:34 | 42.40472 | -29.13430 | 38127 ft | 437 kts | 242° |
| 2026-05-06 15:34 | 42.37255 | -29.20419 | 38128 ft | 437 kts | 242° |
| 2026-05-06 15:35 | 42.34036 | -29.27396 | 38128 ft | 437 kts | 242° |
| 2026-05-06 15:35 | 42.30833 | -29.34323 | 38127 ft | 437 kts | 242° |
| 2026-05-06 15:36 | 42.27606 | -29.41284 | 38129 ft | 437 kts | 242° |
| 2026-05-06 15:36 | 42.24374 | -29.48232 | 38127 ft | 437 kts | 242° |
| 2026-05-06 15:37 | 42.21139 | -29.55181 | 38126 ft | 437 kts | 242° |
| 2026-05-06 15:37 | 42.17901 | -29.62123 | 38124 ft | 437 kts | 242° |
| 2026-05-06 15:38 | 42.14675 | -29.69018 | 38128 ft | 437 kts | 242° |
| 2026-05-06 15:38 | 42.11428 | -29.75937 | 38125 ft | 437 kts | 242° |
| 2026-05-06 15:39 | 42.08173 | -29.82856 | 38127 ft | 437 kts | 242° |
| 2026-05-06 15:39 | 42.04922 | -29.89755 | 38125 ft | 437 kts | 242° |
| 2026-05-06 15:40 | 42.01667 | -29.96650 | 38164 ft | 437 kts | 241° |
| 2026-05-06 15:40 | 41.99965 | -30.00051 | 38405 ft | 439 kts | 237° |
| 2026-05-06 15:40 | 41.98111 | -30.03303 | 38710 ft | 438 kts | 237° |
| 2026-05-06 15:41 | 41.96231 | -30.06517 | 38910 ft | 438 kts | 236° |
| 2026-05-06 15:41 | 41.94331 | -30.09720 | 39059 ft | 438 kts | 236° |
| 2026-05-06 15:41 | 41.92420 | -30.12919 | 39191 ft | 439 kts | 236° |
| 2026-05-06 15:41 | 41.90526 | -30.16081 | 39322 ft | 439 kts | 236° |
| 2026-05-06 15:42 | 41.88606 | -30.19286 | 39453 ft | 440 kts | 236° |
| 2026-05-06 15:42 | 41.86688 | -30.22486 | 39593 ft | 440 kts | 236° |
| 2026-05-06 15:42 | 41.84772 | -30.25686 | 39741 ft | 441 kts | 236° |
| 2026-05-06 15:42 | 41.82845 | -30.28902 | 39882 ft | 441 kts | 236° |
| 2026-05-06 15:43 | 41.80923 | -30.32110 | 40004 ft | 441 kts | 236° |
| 2026-05-06 15:43 | 41.78995 | -30.35322 | 40106 ft | 442 kts | 236° |
| 2026-05-06 15:43 | 41.75128 | -30.41755 | 40138 ft | 443 kts | 236° |
| 2026-05-06 15:44 | 41.71244 | -30.48196 | 40137 ft | 443 kts | 236° |
| 2026-05-06 15:44 | 41.67397 | -30.54570 | 40139 ft | 443 kts | 236° |
| 2026-05-06 15:45 | 41.63516 | -30.60992 | 40144 ft | 443 kts | 236° |
| 2026-05-06 15:45 | 41.59632 | -30.67395 | 40142 ft | 443 kts | 236° |
| 2026-05-06 15:46 | 41.55751 | -30.73790 | 40145 ft | 443 kts | 236° |
| 2026-05-06 15:46 | 41.51866 | -30.80175 | 40143 ft | 443 kts | 236° |
| 2026-05-06 15:47 | 41.48002 | -30.86507 | 40154 ft | 443 kts | 236° |
| 2026-05-06 15:47 | 41.44118 | -30.92871 | 40155 ft | 443 kts | 236° |
| 2026-05-06 15:48 | 41.40226 | -30.99230 | 40155 ft | 443 kts | 236° |
| 2026-05-06 15:48 | 41.36326 | -31.05587 | 40162 ft | 443 kts | 236° |
| 2026-05-06 15:49 | 41.32430 | -31.11924 | 40161 ft | 443 kts | 236° |
| 2026-05-06 15:49 | 41.28525 | -31.18260 | 40161 ft | 443 kts | 236° |
| 2026-05-06 15:50 | 41.24640 | -31.24549 | 40164 ft | 443 kts | 236° |
| 2026-05-06 15:50 | 41.20725 | -31.30874 | 40165 ft | 443 kts | 236° |
| 2026-05-06 15:51 | 41.16804 | -31.37188 | 40169 ft | 443 kts | 236° |
| 2026-05-06 15:51 | 41.12887 | -31.43495 | 40172 ft | 443 kts | 236° |
| 2026-05-06 15:52 | 41.08969 | -31.49794 | 40170 ft | 443 kts | 236° |
| 2026-05-06 15:52 | 41.05044 | -31.56091 | 40180 ft | 442 kts | 236° |
| 2026-05-06 15:53 | 41.01146 | -31.62325 | 40176 ft | 443 kts | 236° |
| 2026-05-06 15:53 | 40.97211 | -31.68593 | 40189 ft | 442 kts | 236° |
| 2026-05-06 15:54 | 40.93273 | -31.74857 | 40185 ft | 443 kts | 236° |
| 2026-05-06 15:54 | 40.89330 | -31.81122 | 40188 ft | 443 kts | 236° |
| 2026-05-06 15:55 | 40.85409 | -31.87343 | 40187 ft | 442 kts | 236° |
| 2026-05-06 15:55 | 40.81468 | -31.93583 | 40189 ft | 442 kts | 236° |
| 2026-05-06 15:56 | 40.77521 | -31.99817 | 40187 ft | 442 kts | 236° |
| 2026-05-06 15:56 | 40.73569 | -32.06048 | 40196 ft | 442 kts | 236° |
| 2026-05-06 15:57 | 40.69613 | -32.12266 | 40198 ft | 442 kts | 236° |
| 2026-05-06 15:57 | 40.65657 | -32.18478 | 40199 ft | 442 kts | 236° |
| 2026-05-06 15:58 | 40.61726 | -32.24638 | 40200 ft | 442 kts | 236° |
| 2026-05-06 15:58 | 40.57765 | -32.30827 | 40200 ft | 442 kts | 236° |
| 2026-05-06 15:59 | 40.53801 | -32.37005 | 40207 ft | 441 kts | 236° |
| 2026-05-06 15:59 | 40.49837 | -32.43181 | 40195 ft | 441 kts | 236° |
| 2026-05-06 16:00 | 40.45893 | -32.49314 | 40207 ft | 441 kts | 236° |
| 2026-05-06 16:00 | 40.41933 | -32.55461 | 40207 ft | 441 kts | 236° |
| 2026-05-06 16:01 | 40.37969 | -32.61598 | 40205 ft | 440 kts | 236° |
| 2026-05-06 16:01 | 40.34008 | -32.67727 | 40225 ft | 440 kts | 236° |
| 2026-05-06 16:02 | 40.30042 | -32.73841 | 40218 ft | 440 kts | 236° |
| 2026-05-06 16:02 | 40.26070 | -32.79944 | 40220 ft | 440 kts | 236° |
| 2026-05-06 16:03 | 40.22120 | -32.86010 | 40219 ft | 440 kts | 236° |
| 2026-05-06 16:03 | 40.18156 | -32.92091 | 40228 ft | 440 kts | 236° |
| 2026-05-06 16:04 | 40.14183 | -32.98171 | 40220 ft | 440 kts | 236° |
| 2026-05-06 16:04 | 40.10198 | -33.04258 | 40218 ft | 440 kts | 236° |
| 2026-05-06 16:05 | 40.06211 | -33.10338 | 40221 ft | 440 kts | 236° |
| 2026-05-06 16:05 | 40.02252 | -33.16363 | 40229 ft | 440 kts | 236° |
| 2026-05-06 16:06 | 39.98261 | -33.22427 | 40229 ft | 440 kts | 236° |
| 2026-05-06 16:06 | 39.94265 | -33.28486 | 40234 ft | 440 kts | 236° |
| 2026-05-06 16:07 | 39.90264 | -33.34538 | 40231 ft | 441 kts | 236° |
| 2026-05-06 16:07 | 39.86257 | -33.40590 | 40234 ft | 441 kts | 236° |
| 2026-05-06 16:08 | 39.82244 | -33.46630 | 40232 ft | 441 kts | 236° |
| 2026-05-06 16:08 | 39.78903 | -33.51651 | 40232 ft | 441 kts | 236° |
| 2026-05-06 16:09 | 39.74239 | -33.58649 | 40233 ft | 441 kts | 236° |
| 2026-05-06 16:09 | 39.70220 | -33.64667 | 40246 ft | 441 kts | 236° |
| 2026-05-06 16:10 | 39.66871 | -33.69673 | 40239 ft | 441 kts | 236° |
| 2026-05-06 16:10 | 39.62851 | -33.75672 | 40244 ft | 441 kts | 236° |
| 2026-05-06 16:11 | 39.58826 | -33.81665 | 40243 ft | 440 kts | 236° |
| 2026-05-06 16:11 | 39.54794 | -33.87650 | 40247 ft | 440 kts | 236° |
| 2026-05-06 16:12 | 39.50760 | -33.93627 | 40248 ft | 440 kts | 236° |
| 2026-05-06 16:12 | 39.46725 | -33.99597 | 40252 ft | 440 kts | 237° |
| 2026-05-06 16:13 | 39.42690 | -34.05565 | 40244 ft | 440 kts | 237° |
| 2026-05-06 16:13 | 39.38656 | -34.11518 | 40253 ft | 440 kts | 237° |
| 2026-05-06 16:14 | 39.34643 | -34.17424 | 40263 ft | 440 kts | 237° |
| 2026-05-06 16:14 | 39.30592 | -34.23373 | 40257 ft | 440 kts | 237° |
| 2026-05-06 16:15 | 39.26545 | -34.29318 | 40256 ft | 440 kts | 237° |
| 2026-05-06 16:15 | 39.22489 | -34.35265 | 40259 ft | 441 kts | 237° |
| 2026-05-06 16:16 | 39.18427 | -34.41196 | 40253 ft | 441 kts | 237° |
| 2026-05-06 16:16 | 39.14382 | -34.47084 | 40265 ft | 441 kts | 237° |
| 2026-05-06 16:17 | 39.10311 | -34.53011 | 40263 ft | 442 kts | 237° |
| 2026-05-06 16:17 | 39.06234 | -34.58936 | 40272 ft | 442 kts | 237° |
| 2026-05-06 16:18 | 39.02145 | -34.64862 | 40268 ft | 442 kts | 237° |
| 2026-05-06 16:18 | 38.98058 | -34.70786 | 40267 ft | 443 kts | 237° |
| 2026-05-06 16:19 | 38.93991 | -34.76671 | 40271 ft | 443 kts | 237° |
| 2026-05-06 16:19 | 38.89887 | -34.82592 | 40276 ft | 443 kts | 237° |
| 2026-05-06 16:20 | 38.85776 | -34.88500 | 40270 ft | 444 kts | 237° |
| 2026-05-06 16:20 | 38.81657 | -34.94407 | 40277 ft | 444 kts | 237° |
| 2026-05-06 16:21 | 38.77541 | -35.00303 | 40276 ft | 444 kts | 237° |
| 2026-05-06 16:21 | 38.73415 | -35.06207 | 40280 ft | 444 kts | 237° |
| 2026-05-06 16:22 | 38.69291 | -35.12097 | 40283 ft | 444 kts | 237° |
| 2026-05-06 16:22 | 38.65161 | -35.17989 | 40285 ft | 444 kts | 237° |
| 2026-05-06 16:23 | 38.61060 | -35.23825 | 40281 ft | 444 kts | 237° |
| 2026-05-06 16:23 | 38.56924 | -35.29698 | 40283 ft | 444 kts | 237° |
| 2026-05-06 16:24 | 38.52782 | -35.35582 | 40283 ft | 445 kts | 237° |
| 2026-05-06 16:24 | 38.48636 | -35.41454 | 40287 ft | 445 kts | 237° |
| 2026-05-06 16:25 | 38.44480 | -35.47322 | 40287 ft | 446 kts | 237° |
| 2026-05-06 16:25 | 38.40351 | -35.53153 | 40299 ft | 446 kts | 237° |
| 2026-05-06 16:26 | 38.36183 | -35.59023 | 40295 ft | 447 kts | 237° |
| 2026-05-06 16:26 | 38.31998 | -35.64904 | 40292 ft | 448 kts | 237° |
| 2026-05-06 16:27 | 38.27806 | -35.70783 | 40293 ft | 449 kts | 237° |
| 2026-05-06 16:27 | 38.23602 | -35.76666 | 40297 ft | 450 kts | 237° |
| 2026-05-06 16:28 | 38.19383 | -35.82558 | 40295 ft | 450 kts | 237° |
| 2026-05-06 16:28 | 38.15159 | -35.88447 | 40303 ft | 451 kts | 237° |
| 2026-05-06 16:29 | 38.10920 | -35.94347 | 40300 ft | 452 kts | 237° |
| 2026-05-06 16:29 | 38.06705 | -36.00206 | 40305 ft | 453 kts | 237° |
| 2026-05-06 16:30 | 38.03135 | -36.05156 | 40300 ft | 453 kts | 237° |
| 2026-05-06 16:30 | 37.98185 | -36.12006 | 40304 ft | 453 kts | 237° |
| 2026-05-06 16:31 | 37.93921 | -36.17899 | 40301 ft | 454 kts | 237° |
| 2026-05-06 16:31 | 37.89649 | -36.23791 | 40303 ft | 454 kts | 237° |
| 2026-05-06 16:32 | 37.87514 | -36.26730 | 40494 ft | 453 kts | 238° |
| 2026-05-06 16:32 | 37.85384 | -36.29655 | 40338 ft | 449 kts | 238° |
| 2026-05-06 16:32 | 37.81199 | -36.35406 | 40303 ft | 447 kts | 239° |
| 2026-05-06 16:33 | 37.76985 | -36.41199 | 40313 ft | 447 kts | 239° |
| 2026-05-06 16:34 | 37.70654 | -36.49865 | 40309 ft | 447 kts | 238° |
| 2026-05-06 16:34 | 37.66457 | -36.55598 | 40307 ft | 447 kts | 238° |
| 2026-05-06 16:35 | 37.62239 | -36.61349 | 40309 ft | 447 kts | 238° |
| 2026-05-06 16:35 | 37.58009 | -36.67108 | 40315 ft | 446 kts | 238° |
| 2026-05-06 16:36 | 37.53782 | -36.72846 | 40315 ft | 446 kts | 238° |
| 2026-05-06 16:36 | 37.49559 | -36.78568 | 40315 ft | 446 kts | 238° |
| 2026-05-06 16:37 | 37.45353 | -36.84260 | 40310 ft | 445 kts | 239° |
| 2026-05-06 16:37 | 37.41145 | -36.89968 | 40317 ft | 444 kts | 239° |
| 2026-05-06 16:38 | 37.36935 | -36.95661 | 40325 ft | 444 kts | 238° |
| 2026-05-06 16:38 | 37.32726 | -37.01329 | 40318 ft | 443 kts | 238° |
| 2026-05-06 16:39 | 37.28514 | -37.06988 | 40316 ft | 443 kts | 238° |
| 2026-05-06 16:39 | 37.24309 | -37.12627 | 40314 ft | 442 kts | 238° |
| 2026-05-06 16:40 | 37.20133 | -37.18217 | 40314 ft | 441 kts | 238° |
| 2026-05-06 16:40 | 37.15930 | -37.23832 | 40316 ft | 440 kts | 238° |
| 2026-05-06 16:41 | 37.11737 | -37.29423 | 40318 ft | 440 kts | 238° |
| 2026-05-06 16:41 | 37.07549 | -37.34995 | 40318 ft | 439 kts | 238° |
| 2026-05-06 16:42 | 37.03359 | -37.40572 | 40315 ft | 439 kts | 238° |
| 2026-05-06 16:42 | 36.99168 | -37.46134 | 40316 ft | 438 kts | 237° |
| 2026-05-06 16:43 | 36.94985 | -37.51674 | 40317 ft | 438 kts | 237° |
| 2026-05-06 16:43 | 36.90825 | -37.57185 | 40317 ft | 438 kts | 237° |
| 2026-05-06 16:44 | 36.86640 | -37.62716 | 40323 ft | 438 kts | 237° |
| 2026-05-06 16:44 | 36.82454 | -37.68235 | 40321 ft | 437 kts | 237° |
| 2026-05-06 16:45 | 36.78257 | -37.73750 | 40317 ft | 437 kts | 237° |
| 2026-05-06 16:45 | 36.74067 | -37.79245 | 40319 ft | 437 kts | 236° |
| 2026-05-06 16:46 | 36.69875 | -37.84731 | 40319 ft | 436 kts | 236° |
| 2026-05-06 16:46 | 36.65717 | -37.90159 | 40317 ft | 436 kts | 236° |
| 2026-05-06 16:47 | 36.61532 | -37.95629 | 40330 ft | 436 kts | 236° |
| 2026-05-06 16:47 | 36.57348 | -38.01093 | 40321 ft | 436 kts | 236° |
| 2026-05-06 16:48 | 36.53159 | -38.06550 | 40321 ft | 436 kts | 236° |
| 2026-05-06 16:48 | 36.48967 | -38.12002 | 40310 ft | 436 kts | 236° |
| 2026-05-06 16:49 | 36.44800 | -38.17406 | 40317 ft | 436 kts | 236° |
| 2026-05-06 16:49 | 36.40577 | -38.22873 | 40320 ft | 436 kts | 235° |
| 2026-05-06 16:50 | 36.36401 | -38.28272 | 40319 ft | 436 kts | 235° |
| 2026-05-06 16:50 | 36.32197 | -38.33701 | 40320 ft | 436 kts | 235° |
| 2026-05-06 16:51 | 36.27990 | -38.39128 | 40321 ft | 436 kts | 235° |
| 2026-05-06 16:51 | 36.23786 | -38.44549 | 40323 ft | 436 kts | 235° |
| 2026-05-06 16:52 | 36.19570 | -38.49977 | 40320 ft | 437 kts | 235° |
| 2026-05-06 16:52 | 36.15338 | -38.55405 | 40321 ft | 437 kts | 235° |
| 2026-05-06 16:53 | 36.11129 | -38.60789 | 40322 ft | 438 kts | 235° |
| 2026-05-06 16:53 | 36.06895 | -38.66202 | 40322 ft | 438 kts | 235° |
| 2026-05-06 16:54 | 36.02647 | -38.71627 | 40323 ft | 439 kts | 234° |
| 2026-05-06 16:54 | 35.98396 | -38.77047 | 40333 ft | 439 kts | 234° |
| 2026-05-06 16:55 | 35.94144 | -38.82461 | 40326 ft | 440 kts | 234° |
| 2026-05-06 16:55 | 35.89871 | -38.87890 | 40323 ft | 440 kts | 234° |
| 2026-05-06 16:56 | 35.86326 | -38.92389 | 40326 ft | 440 kts | 234° |
| 2026-05-06 16:56 | 35.82053 | -38.97802 | 40328 ft | 440 kts | 234° |
| 2026-05-06 16:57 | 35.77772 | -39.03217 | 40326 ft | 441 kts | 234° |
| 2026-05-06 16:57 | 35.73486 | -39.08630 | 40331 ft | 440 kts | 234° |
| 2026-05-06 16:58 | 35.69196 | -39.14037 | 40322 ft | 441 kts | 234° |
| 2026-05-06 16:58 | 35.64901 | -39.19442 | 40334 ft | 442 kts | 233° |
| 2026-05-06 16:59 | 35.60631 | -39.24800 | 40328 ft | 442 kts | 233° |
| 2026-05-06 16:59 | 35.56323 | -39.30200 | 40330 ft | 442 kts | 233° |
| 2026-05-06 17:00 | 35.52020 | -39.35595 | 40331 ft | 442 kts | 233° |
| 2026-05-06 17:00 | 35.47711 | -39.40990 | 40330 ft | 442 kts | 233° |
| 2026-05-06 17:01 | 35.43419 | -39.46347 | 40328 ft | 443 kts | 233° |
| 2026-05-06 17:01 | 35.39096 | -39.51729 | 40331 ft | 443 kts | 233° |
| 2026-05-06 17:02 | 35.34769 | -39.57113 | 40328 ft | 443 kts | 233° |
| 2026-05-06 17:02 | 35.30441 | -39.62494 | 40329 ft | 443 kts | 233° |
| 2026-05-06 17:03 | 35.26101 | -39.67878 | 40331 ft | 444 kts | 233° |
| 2026-05-06 17:03 | 35.21751 | -39.73264 | 40330 ft | 444 kts | 233° |
| 2026-05-06 17:04 | 35.17432 | -39.78602 | 40331 ft | 444 kts | 233° |
| 2026-05-06 17:04 | 35.13082 | -39.83974 | 40331 ft | 444 kts | 233° |
| 2026-05-06 17:05 | 35.08729 | -39.89339 | 40329 ft | 444 kts | 233° |
| 2026-05-06 17:05 | 35.04377 | -39.94696 | 40333 ft | 444 kts | 233° |
| 2026-05-06 17:06 | 35.00015 | -40.00055 | 40330 ft | 445 kts | 232° |
| 2026-05-06 17:06 | 34.95877 | -40.05608 | 40332 ft | 440 kts | 237° |
| 2026-05-06 17:07 | 34.91997 | -40.11369 | 40335 ft | 439 kts | 238° |
| 2026-05-06 17:07 | 34.88127 | -40.17072 | 40343 ft | 440 kts | 237° |
| 2026-05-06 17:08 | 34.84166 | -40.22778 | 40337 ft | 441 kts | 237° |
| 2026-05-06 17:08 | 34.80184 | -40.28459 | 40331 ft | 441 kts | 236° |
| 2026-05-06 17:09 | 34.76196 | -40.34134 | 40333 ft | 441 kts | 236° |
| 2026-05-06 17:09 | 34.72206 | -40.39805 | 40327 ft | 441 kts | 236° |
| 2026-05-06 17:10 | 34.68216 | -40.45476 | 40331 ft | 441 kts | 236° |
| 2026-05-06 17:10 | 34.64219 | -40.51146 | 40333 ft | 441 kts | 236° |
| 2026-05-06 17:11 | 34.60250 | -40.56770 | 40332 ft | 441 kts | 236° |
| 2026-05-06 17:11 | 34.56246 | -40.62429 | 40331 ft | 442 kts | 236° |
| 2026-05-06 17:12 | 34.52239 | -40.68084 | 40333 ft | 442 kts | 236° |
| 2026-05-06 17:12 | 34.48229 | -40.73734 | 40331 ft | 442 kts | 236° |
| 2026-05-06 17:13 | 34.44216 | -40.79377 | 40331 ft | 442 kts | 236° |
| 2026-05-06 17:13 | 34.40202 | -40.85010 | 40333 ft | 442 kts | 236° |
| 2026-05-06 17:14 | 34.36199 | -40.90609 | 40332 ft | 442 kts | 236° |
| 2026-05-06 17:14 | 34.32175 | -40.96233 | 40331 ft | 442 kts | 236° |
| 2026-05-06 17:15 | 34.28154 | -41.01850 | 40330 ft | 442 kts | 236° |
| 2026-05-06 17:15 | 34.24127 | -41.07469 | 40331 ft | 442 kts | 236° |
| 2026-05-06 17:16 | 34.20098 | -41.13083 | 40331 ft | 442 kts | 236° |
| 2026-05-06 17:16 | 34.16070 | -41.18692 | 40332 ft | 442 kts | 236° |
| 2026-05-06 17:17 | 34.12064 | -41.24253 | 40333 ft | 441 kts | 236° |
| 2026-05-06 17:17 | 34.08030 | -41.29847 | 40330 ft | 441 kts | 236° |
| 2026-05-06 17:18 | 34.03993 | -41.35438 | 40329 ft | 441 kts | 236° |
| 2026-05-06 17:18 | 33.99954 | -41.41021 | 40330 ft | 441 kts | 236° |
| 2026-05-06 17:19 | 33.95942 | -41.46558 | 40329 ft | 441 kts | 236° |
| 2026-05-06 17:19 | 33.91905 | -41.52121 | 40329 ft | 441 kts | 236° |
| 2026-05-06 17:20 | 33.87867 | -41.57673 | 40330 ft | 440 kts | 236° |
| 2026-05-06 17:20 | 33.83832 | -41.63214 | 40326 ft | 440 kts | 236° |
| 2026-05-06 17:21 | 33.79795 | -41.68748 | 40338 ft | 440 kts | 236° |
| 2026-05-06 17:21 | 33.75757 | -41.74276 | 40334 ft | 439 kts | 236° |
| 2026-05-06 17:22 | 33.71718 | -41.79796 | 40327 ft | 439 kts | 236° |
| 2026-05-06 17:22 | 33.67688 | -41.85298 | 40331 ft | 439 kts | 236° |
| 2026-05-06 17:23 | 33.63679 | -41.90760 | 40330 ft | 439 kts | 236° |
| 2026-05-06 17:23 | 33.59640 | -41.96253 | 40326 ft | 438 kts | 236° |
| 2026-05-06 17:24 | 33.55602 | -42.01729 | 40327 ft | 438 kts | 236° |
| 2026-05-06 17:24 | 33.51562 | -42.07200 | 40325 ft | 438 kts | 236° |
| 2026-05-06 17:25 | 33.47522 | -42.12669 | 40323 ft | 438 kts | 236° |
| 2026-05-06 17:25 | 33.43486 | -42.18133 | 40325 ft | 438 kts | 236° |
| 2026-05-06 17:26 | 33.39445 | -42.23586 | 40324 ft | 438 kts | 235° |
| 2026-05-06 17:26 | 33.35424 | -42.29003 | 40324 ft | 437 kts | 235° |
| 2026-05-06 17:27 | 33.31379 | -42.34447 | 40323 ft | 437 kts | 235° |
| 2026-05-06 17:27 | 33.27335 | -42.39879 | 40322 ft | 437 kts | 235° |
| 2026-05-06 17:28 | 33.23281 | -42.45316 | 40319 ft | 437 kts | 235° |
| 2026-05-06 17:28 | 33.19228 | -42.50750 | 40323 ft | 437 kts | 235° |
| 2026-05-06 17:29 | 33.15181 | -42.56167 | 40321 ft | 438 kts | 235° |
| 2026-05-06 17:29 | 33.11142 | -42.61564 | 40320 ft | 438 kts | 235° |
| 2026-05-06 17:30 | 33.07087 | -42.66974 | 40320 ft | 438 kts | 234° |
| 2026-05-06 17:30 | 33.03022 | -42.72388 | 40320 ft | 438 kts | 234° |
| 2026-05-06 17:31 | 32.98952 | -42.77778 | 40315 ft | 438 kts | 234° |
| 2026-05-06 17:31 | 32.94877 | -42.83173 | 40316 ft | 438 kts | 234° |
| 2026-05-06 17:32 | 32.90801 | -42.88572 | 40315 ft | 438 kts | 234° |
| 2026-05-06 17:32 | 32.86733 | -42.93959 | 40313 ft | 438 kts | 234° |
| 2026-05-06 17:33 | 32.82649 | -42.99361 | 40315 ft | 438 kts | 234° |
| 2026-05-06 17:33 | 32.78602 | -43.04704 | 40311 ft | 438 kts | 234° |
| 2026-05-06 17:34 | 32.74525 | -43.10078 | 40311 ft | 438 kts | 234° |
| 2026-05-06 17:34 | 32.70438 | -43.15456 | 40310 ft | 438 kts | 234° |
| 2026-05-06 17:35 | 32.66362 | -43.20812 | 40307 ft | 437 kts | 234° |
| 2026-05-06 17:35 | 32.62281 | -43.26167 | 40310 ft | 437 kts | 234° |
| 2026-05-06 17:36 | 32.56152 | -43.34196 | 40307 ft | 437 kts | 234° |
| 2026-05-06 17:36 | 32.52062 | -43.39538 | 40309 ft | 438 kts | 233° |
| 2026-05-06 17:37 | 32.47968 | -43.44872 | 40308 ft | 437 kts | 233° |
| 2026-05-06 17:37 | 32.44558 | -43.49310 | 40306 ft | 438 kts | 233° |
| 2026-05-06 17:38 | 32.39798 | -43.55503 | 40305 ft | 437 kts | 233° |
| 2026-05-06 17:38 | 32.35690 | -43.60835 | 40305 ft | 437 kts | 233° |
| 2026-05-06 17:39 | 32.31593 | -43.66149 | 40305 ft | 437 kts | 233° |
| 2026-05-06 17:39 | 32.27492 | -43.71460 | 40302 ft | 437 kts | 233° |
| 2026-05-06 17:40 | 32.23386 | -43.76776 | 40298 ft | 437 kts | 233° |
| 2026-05-06 17:40 | 32.19976 | -43.81178 | 40297 ft | 437 kts | 233° |
| 2026-05-06 17:41 | 32.15203 | -43.87332 | 40302 ft | 437 kts | 233° |
| 2026-05-06 17:41 | 32.11091 | -43.92627 | 40295 ft | 437 kts | 233° |
| 2026-05-06 17:42 | 32.07679 | -43.97022 | 40296 ft | 437 kts | 233° |
| 2026-05-06 17:42 | 32.03576 | -44.02305 | 40295 ft | 437 kts | 233° |
| 2026-05-06 17:43 | 31.99459 | -44.07586 | 40294 ft | 437 kts | 233° |
| 2026-05-06 17:43 | 31.95334 | -44.12865 | 40292 ft | 437 kts | 233° |
| 2026-05-06 17:44 | 31.91219 | -44.18128 | 40289 ft | 437 kts | 233° |
| 2026-05-06 17:44 | 31.87101 | -44.23391 | 40288 ft | 437 kts | 233° |
| 2026-05-06 17:45 | 31.82981 | -44.28648 | 40296 ft | 437 kts | 232° |
| 2026-05-06 17:45 | 31.78883 | -44.33873 | 40293 ft | 437 kts | 232° |
| 2026-05-06 17:46 | 31.74755 | -44.39126 | 40289 ft | 437 kts | 232° |
| 2026-05-06 17:46 | 31.70630 | -44.44368 | 40289 ft | 437 kts | 232° |
| 2026-05-06 17:47 | 31.66498 | -44.49608 | 40288 ft | 437 kts | 232° |
| 2026-05-06 17:47 | 31.62366 | -44.54845 | 40284 ft | 437 kts | 232° |
| 2026-05-06 17:48 | 31.58253 | -44.60052 | 40289 ft | 437 kts | 232° |
| 2026-05-06 17:48 | 31.54113 | -44.65283 | 40285 ft | 437 kts | 232° |
| 2026-05-06 17:49 | 31.49963 | -44.70511 | 40283 ft | 437 kts | 232° |
| 2026-05-06 17:49 | 31.45818 | -44.75727 | 40280 ft | 437 kts | 232° |
| 2026-05-06 17:50 | 31.41677 | -44.80946 | 40281 ft | 437 kts | 232° |
| 2026-05-06 17:50 | 31.37553 | -44.86135 | 40283 ft | 437 kts | 232° |
| 2026-05-06 17:51 | 31.33405 | -44.91343 | 40279 ft | 437 kts | 232° |
| 2026-05-06 17:51 | 31.29252 | -44.96546 | 40278 ft | 438 kts | 232° |
| 2026-05-06 17:52 | 31.25097 | -45.01743 | 40278 ft | 437 kts | 232° |
| 2026-05-06 17:52 | 31.20932 | -45.06949 | 40277 ft | 438 kts | 232° |
| 2026-05-06 17:53 | 31.16776 | -45.12143 | 40277 ft | 438 kts | 232° |
| 2026-05-06 17:53 | 31.12614 | -45.17342 | 40273 ft | 438 kts | 232° |
| 2026-05-06 17:54 | 31.08474 | -45.22501 | 40277 ft | 438 kts | 232° |
| 2026-05-06 17:54 | 31.04299 | -45.27692 | 40273 ft | 438 kts | 232° |
| 2026-05-06 17:55 | 31.00131 | -45.32873 | 40272 ft | 438 kts | 232° |
| 2026-05-06 17:55 | 30.95952 | -45.38052 | 40271 ft | 438 kts | 232° |
| 2026-05-06 17:56 | 30.91771 | -45.43228 | 40264 ft | 438 kts | 232° |
| 2026-05-06 17:56 | 30.87588 | -45.48403 | 40265 ft | 439 kts | 232° |
| 2026-05-06 17:57 | 30.83401 | -45.53573 | 40266 ft | 439 kts | 232° |
| 2026-05-06 17:57 | 30.79240 | -45.58704 | 40266 ft | 439 kts | 231° |
| 2026-05-06 17:58 | 30.75049 | -45.63862 | 40261 ft | 439 kts | 231° |
| 2026-05-06 17:58 | 30.70848 | -45.69022 | 40262 ft | 439 kts | 231° |
| 2026-05-06 17:59 | 30.66651 | -45.74175 | 40265 ft | 439 kts | 231° |
| 2026-05-06 17:59 | 30.62444 | -45.79327 | 40258 ft | 439 kts | 231° |
| 2026-05-06 18:00 | 30.58235 | -45.84473 | 40259 ft | 439 kts | 231° |
| 2026-05-06 18:00 | 30.54051 | -45.89586 | 40261 ft | 439 kts | 231° |
| 2026-05-06 18:01 | 30.49842 | -45.94728 | 40258 ft | 439 kts | 231° |
| 2026-05-06 18:01 | 30.45630 | -45.99865 | 40259 ft | 439 kts | 231° |
| 2026-05-06 18:02 | 30.41419 | -46.04992 | 40248 ft | 439 kts | 231° |
| 2026-05-06 18:02 | 30.37202 | -46.10119 | 40250 ft | 439 kts | 231° |
| 2026-05-06 18:03 | 30.32986 | -46.15241 | 40254 ft | 439 kts | 231° |
| 2026-05-06 18:03 | 30.28765 | -46.20361 | 40247 ft | 440 kts | 231° |
| 2026-05-06 18:04 | 30.24542 | -46.25477 | 40262 ft | 439 kts | 231° |
| 2026-05-06 18:04 | 30.20317 | -46.30595 | 40254 ft | 439 kts | 231° |
| 2026-05-06 18:05 | 30.16118 | -46.35674 | 40248 ft | 440 kts | 231° |
| 2026-05-06 18:05 | 30.11888 | -46.40781 | 40258 ft | 440 kts | 231° |
| 2026-05-06 18:06 | 30.07654 | -46.45883 | 40234 ft | 440 kts | 231° |
| 2026-05-06 18:06 | 30.03416 | -46.50983 | 40250 ft | 440 kts | 231° |
| 2026-05-06 18:07 | 29.99178 | -46.56073 | 40245 ft | 440 kts | 231° |
| 2026-05-06 18:07 | 29.94940 | -46.61158 | 40245 ft | 440 kts | 231° |
| 2026-05-06 18:08 | 29.90721 | -46.66217 | 40242 ft | 440 kts | 231° |
| 2026-05-06 18:08 | 29.86469 | -46.71308 | 40243 ft | 440 kts | 231° |
| 2026-05-06 18:09 | 29.82221 | -46.76384 | 40245 ft | 440 kts | 231° |
| 2026-05-06 18:09 | 29.77970 | -46.81460 | 40245 ft | 440 kts | 231° |
| 2026-05-06 18:10 | 29.73747 | -46.86507 | 40241 ft | 440 kts | 231° |
| 2026-05-06 18:10 | 29.69497 | -46.91574 | 40243 ft | 440 kts | 230° |
| 2026-05-06 18:11 | 29.65238 | -46.96637 | 40244 ft | 440 kts | 230° |
| 2026-05-06 18:11 | 29.60988 | -47.01688 | 40239 ft | 440 kts | 230° |
| 2026-05-06 18:12 | 29.56751 | -47.06716 | 40234 ft | 440 kts | 230° |
| 2026-05-06 18:12 | 29.52493 | -47.11761 | 40235 ft | 440 kts | 230° |
| 2026-05-06 18:13 | 29.48230 | -47.16805 | 40237 ft | 440 kts | 230° |
| 2026-05-06 18:13 | 29.43967 | -47.21842 | 40237 ft | 440 kts | 230° |
| 2026-05-06 18:14 | 29.39701 | -47.26876 | 40235 ft | 440 kts | 230° |
| 2026-05-06 18:14 | 29.35426 | -47.31914 | 40233 ft | 440 kts | 230° |
| 2026-05-06 18:15 | 29.31156 | -47.36940 | 40232 ft | 440 kts | 230° |
| 2026-05-06 18:15 | 29.26874 | -47.41974 | 40229 ft | 440 kts | 230° |
| 2026-05-06 18:16 | 29.22596 | -47.46995 | 40229 ft | 440 kts | 230° |
| 2026-05-06 18:16 | 29.18310 | -47.52018 | 40229 ft | 440 kts | 230° |
| 2026-05-06 18:17 | 29.14053 | -47.57001 | 40232 ft | 440 kts | 230° |
| 2026-05-06 18:17 | 29.09770 | -47.62013 | 40228 ft | 440 kts | 230° |
| 2026-05-06 18:18 | 29.05484 | -47.67022 | 40226 ft | 440 kts | 230° |
| 2026-05-06 18:18 | 29.01195 | -47.72028 | 40227 ft | 440 kts | 230° |
| 2026-05-06 18:19 | 28.96905 | -47.77026 | 40226 ft | 440 kts | 230° |
| 2026-05-06 18:19 | 28.92619 | -47.82018 | 40225 ft | 440 kts | 230° |
| 2026-05-06 18:20 | 28.88359 | -47.86981 | 40225 ft | 440 kts | 230° |
| 2026-05-06 18:20 | 28.84062 | -47.91972 | 40222 ft | 440 kts | 230° |
| 2026-05-06 18:21 | 28.79767 | -47.96952 | 40223 ft | 440 kts | 230° |
| 2026-05-06 18:21 | 28.75472 | -48.01925 | 40218 ft | 440 kts | 230° |
| 2026-05-06 18:22 | 28.71175 | -48.06894 | 40218 ft | 440 kts | 229° |
| 2026-05-06 18:22 | 28.66875 | -48.11861 | 40220 ft | 440 kts | 229° |
| 2026-05-06 18:23 | 28.62573 | -48.16823 | 40217 ft | 440 kts | 229° |
| 2026-05-06 18:23 | 28.58268 | -48.21784 | 40219 ft | 440 kts | 229° |
| 2026-05-06 18:24 | 28.53957 | -48.26743 | 40220 ft | 440 kts | 229° |
| 2026-05-06 18:24 | 28.49668 | -48.31672 | 40219 ft | 441 kts | 229° |
| 2026-05-06 18:25 | 28.45357 | -48.36622 | 40222 ft | 440 kts | 229° |
| 2026-05-06 18:25 | 28.41041 | -48.41570 | 40214 ft | 441 kts | 229° |
| 2026-05-06 18:26 | 28.37456 | -48.45676 | 40217 ft | 440 kts | 229° |
| 2026-05-06 18:26 | 28.32405 | -48.51455 | 40212 ft | 440 kts | 229° |
| 2026-05-06 18:27 | 28.28817 | -48.55558 | 40209 ft | 440 kts | 229° |
| 2026-05-06 18:27 | 28.24498 | -48.60486 | 40215 ft | 440 kts | 229° |
| 2026-05-06 18:28 | 28.20162 | -48.65424 | 40216 ft | 440 kts | 229° |
| 2026-05-06 18:28 | 28.15838 | -48.70345 | 40208 ft | 440 kts | 229° |
| 2026-05-06 18:29 | 28.11538 | -48.75233 | 40211 ft | 440 kts | 229° |
| 2026-05-06 18:29 | 28.07211 | -48.80148 | 40212 ft | 440 kts | 229° |
| 2026-05-06 18:30 | 28.02883 | -48.85057 | 40213 ft | 440 kts | 229° |
| 2026-05-06 18:30 | 27.98547 | -48.89969 | 40210 ft | 440 kts | 229° |
| 2026-05-06 18:31 | 27.94219 | -48.94865 | 40206 ft | 440 kts | 228° |
| 2026-05-06 18:31 | 27.89910 | -48.99735 | 40206 ft | 440 kts | 228° |
| 2026-05-06 18:32 | 27.85574 | -49.04629 | 40206 ft | 440 kts | 228° |
| 2026-05-06 18:32 | 27.81235 | -49.09521 | 40206 ft | 440 kts | 228° |
| 2026-05-06 18:33 | 27.76894 | -49.14409 | 40204 ft | 440 kts | 228° |
| 2026-05-06 18:33 | 27.72559 | -49.19284 | 40204 ft | 440 kts | 228° |
| 2026-05-06 18:34 | 27.68213 | -49.24156 | 40207 ft | 440 kts | 228° |
| 2026-05-06 18:34 | 27.63894 | -49.28998 | 40205 ft | 440 kts | 228° |
| 2026-05-06 18:35 | 27.59551 | -49.33871 | 40201 ft | 440 kts | 228° |
| 2026-05-06 18:35 | 27.55203 | -49.38738 | 40202 ft | 440 kts | 228° |
| 2026-05-06 18:36 | 27.50854 | -49.43601 | 40200 ft | 440 kts | 227° |
| 2026-05-06 18:36 | 27.46497 | -49.48457 | 40202 ft | 440 kts | 227° |
| 2026-05-06 18:37 | 27.42138 | -49.53307 | 40200 ft | 440 kts | 227° |
| 2026-05-06 18:37 | 27.37786 | -49.58151 | 40201 ft | 440 kts | 227° |
| 2026-05-06 18:38 | 27.33459 | -49.62965 | 40193 ft | 440 kts | 227° |
| 2026-05-06 18:38 | 27.29100 | -49.67811 | 40194 ft | 440 kts | 227° |
| 2026-05-06 18:39 | 27.24745 | -49.72646 | 40194 ft | 440 kts | 227° |
| 2026-05-06 18:40 | 27.18204 | -49.79897 | 40195 ft | 440 kts | 227° |
| 2026-05-06 18:40 | 27.13843 | -49.84727 | 40191 ft | 440 kts | 227° |
| 2026-05-06 18:41 | 27.09502 | -49.89529 | 40188 ft | 440 kts | 227° |
| 2026-05-06 18:41 | 27.05142 | -49.94352 | 40189 ft | 440 kts | 227° |
| 2026-05-06 18:42 | 27.00788 | -49.99181 | 40188 ft | 440 kts | 229° |
| 2026-05-06 18:42 | 26.96746 | -50.04306 | 40189 ft | 439 kts | 231° |
| 2026-05-06 18:43 | 26.92790 | -50.09513 | 40189 ft | 439 kts | 232° |
| 2026-05-06 18:43 | 26.88842 | -50.14736 | 40190 ft | 439 kts | 232° |
| 2026-05-06 18:44 | 26.84884 | -50.19948 | 40186 ft | 439 kts | 231° |
| 2026-05-06 18:44 | 26.80927 | -50.25151 | 40186 ft | 439 kts | 231° |
| 2026-05-06 18:45 | 26.76967 | -50.30353 | 40187 ft | 439 kts | 231° |
| 2026-05-06 18:45 | 26.73007 | -50.35547 | 40184 ft | 439 kts | 231° |
| 2026-05-06 18:46 | 26.69068 | -50.40705 | 40183 ft | 439 kts | 231° |
| 2026-05-06 18:46 | 26.65092 | -50.45902 | 40185 ft | 439 kts | 231° |
| 2026-05-06 18:47 | 26.61122 | -50.51090 | 40185 ft | 439 kts | 231° |
| 2026-05-06 18:47 | 26.57150 | -50.56275 | 40184 ft | 439 kts | 231° |
| 2026-05-06 18:48 | 26.53174 | -50.61458 | 40182 ft | 439 kts | 231° |
| 2026-05-06 18:48 | 26.49198 | -50.66634 | 40182 ft | 439 kts | 231° |
| 2026-05-06 18:49 | 26.45222 | -50.71805 | 40181 ft | 439 kts | 231° |
| 2026-05-06 18:49 | 26.41244 | -50.76972 | 40181 ft | 439 kts | 231° |
| 2026-05-06 18:50 | 26.37288 | -50.82107 | 40178 ft | 439 kts | 231° |
| 2026-05-06 18:50 | 26.33303 | -50.87270 | 40178 ft | 439 kts | 231° |
| 2026-05-06 18:51 | 26.29320 | -50.92425 | 40176 ft | 439 kts | 231° |
| 2026-05-06 18:51 | 26.25329 | -50.97584 | 40175 ft | 439 kts | 231° |
| 2026-05-06 18:52 | 26.21339 | -51.02736 | 40173 ft | 439 kts | 231° |
| 2026-05-06 18:52 | 26.17372 | -51.07853 | 40174 ft | 439 kts | 231° |
| 2026-05-06 18:53 | 26.13380 | -51.12994 | 40173 ft | 439 kts | 231° |
| 2026-05-06 18:53 | 26.09388 | -51.18130 | 40172 ft | 439 kts | 230° |
| 2026-05-06 18:54 | 26.05386 | -51.23269 | 40172 ft | 439 kts | 230° |
| 2026-05-06 18:54 | 26.01390 | -51.28394 | 40173 ft | 439 kts | 230° |
| 2026-05-06 18:55 | 25.97386 | -51.33526 | 40176 ft | 439 kts | 230° |
| 2026-05-06 18:55 | 25.93389 | -51.38650 | 40170 ft | 439 kts | 230° |
| 2026-05-06 18:56 | 25.89390 | -51.43777 | 40169 ft | 439 kts | 230° |
| 2026-05-06 18:56 | 25.85382 | -51.48909 | 40168 ft | 439 kts | 230° |
| 2026-05-06 18:57 | 25.81379 | -51.54028 | 40168 ft | 439 kts | 230° |
| 2026-05-06 18:57 | 25.77379 | -51.59140 | 40166 ft | 439 kts | 230° |
| 2026-05-06 18:58 | 25.73372 | -51.64251 | 40165 ft | 439 kts | 230° |
| 2026-05-06 18:58 | 25.69360 | -51.69356 | 40161 ft | 439 kts | 230° |
| 2026-05-06 18:59 | 25.65370 | -51.74426 | 40167 ft | 439 kts | 230° |
| 2026-05-06 18:59 | 25.61357 | -51.79521 | 40166 ft | 439 kts | 230° |
| 2026-05-06 19:00 | 25.57341 | -51.84616 | 40163 ft | 439 kts | 230° |
| 2026-05-06 19:00 | 25.53317 | -51.89713 | 40163 ft | 439 kts | 230° |
| 2026-05-06 19:01 | 25.49285 | -51.94815 | 40165 ft | 439 kts | 230° |
| 2026-05-06 19:01 | 25.45284 | -51.99873 | 40157 ft | 439 kts | 230° |
| 2026-05-06 19:02 | 25.41257 | -52.04959 | 40152 ft | 439 kts | 230° |
| 2026-05-06 19:02 | 25.37234 | -52.10036 | 40160 ft | 438 kts | 230° |
| 2026-05-06 19:03 | 25.33218 | -52.15106 | 40161 ft | 438 kts | 230° |
| 2026-05-06 19:03 | 25.29201 | -52.20168 | 40162 ft | 438 kts | 230° |
| 2026-05-06 19:04 | 25.25176 | -52.25231 | 40161 ft | 438 kts | 230° |
| 2026-05-06 19:04 | 25.21148 | -52.30289 | 40159 ft | 438 kts | 230° |
| 2026-05-06 19:05 | 25.17122 | -52.35339 | 40157 ft | 438 kts | 230° |
| 2026-05-06 19:05 | 25.13114 | -52.40361 | 40149 ft | 438 kts | 230° |
| 2026-05-06 19:06 | 25.09089 | -52.45401 | 40158 ft | 438 kts | 230° |
| 2026-05-06 19:06 | 25.05058 | -52.50443 | 40158 ft | 438 kts | 230° |
| 2026-05-06 19:07 | 25.01019 | -52.55487 | 40155 ft | 438 kts | 230° |
| 2026-05-06 19:07 | 24.96981 | -52.60524 | 40157 ft | 438 kts | 230° |
| 2026-05-06 19:08 | 24.92946 | -52.65551 | 40154 ft | 438 kts | 230° |
| 2026-05-06 19:08 | 24.88910 | -52.70577 | 40149 ft | 438 kts | 230° |
| 2026-05-06 19:09 | 24.84870 | -52.75601 | 40154 ft | 438 kts | 230° |
| 2026-05-06 19:09 | 24.80834 | -52.80616 | 40154 ft | 438 kts | 230° |
| 2026-05-06 19:10 | 24.76814 | -52.85606 | 40151 ft | 438 kts | 230° |
| 2026-05-06 19:10 | 24.72768 | -52.90621 | 40151 ft | 438 kts | 230° |
| 2026-05-06 19:11 | 24.68724 | -52.95630 | 40153 ft | 438 kts | 230° |
| 2026-05-06 19:11 | 24.64673 | -53.00641 | 40149 ft | 438 kts | 230° |
| 2026-05-06 19:12 | 24.60619 | -53.05652 | 40152 ft | 438 kts | 229° |
| 2026-05-06 19:12 | 24.56565 | -53.10657 | 40151 ft | 438 kts | 229° |
| 2026-05-06 19:13 | 24.53194 | -53.14814 | 40146 ft | 438 kts | 229° |
| 2026-05-06 19:13 | 24.49142 | -53.19806 | 40147 ft | 438 kts | 229° |
| 2026-05-06 19:14 | 24.45086 | -53.24800 | 40146 ft | 437 kts | 230° |
| 2026-05-06 19:14 | 24.41040 | -53.29786 | 40147 ft | 437 kts | 229° |
| 2026-05-06 19:15 | 24.39017 | -53.32274 | 40146 ft | 437 kts | 229° |